createdAt,value
2018-09-12T00:01:52.581Z,17.29
2018-09-12T00:04:21.691Z,17.22
2018-09-12T00:06:50.889Z,17.45
2018-09-12T00:09:20.109Z,17.41
2018-09-12T00:11:49.266Z,17.32
2018-09-12T00:14:18.449Z,17.34
2018-09-12T00:16:47.636Z,17.36
2018-09-12T00:19:16.723Z,17.38
2018-09-12T00:21:45.880Z,17.45
2018-09-12T00:24:14.986Z,17.60
2018-09-12T00:26:44.134Z,17.61
2018-09-12T00:29:13.229Z,17.58
2018-09-12T00:31:42.628Z,17.53
2018-09-12T00:34:11.758Z,17.40
2018-09-12T00:36:40.953Z,17.24
2018-09-12T00:39:11.434Z,17.25
2018-09-12T00:41:40.617Z,17.31
2018-09-12T00:44:10.176Z,17.10
2018-09-12T00:46:39.364Z,17.23
2018-09-12T00:49:08.569Z,17.28
2018-09-12T00:51:37.661Z,17.14
2018-09-12T00:54:07.377Z,17.07
2018-09-12T00:56:36.723Z,17.04
2018-09-12T00:59:05.881Z,16.92
2018-09-12T01:01:35.225Z,16.90
2018-09-12T01:04:04.454Z,16.78
2018-09-12T01:06:33.599Z,16.93
2018-09-12T01:09:02.765Z,17.06
2018-09-12T01:11:31.940Z,16.81
2018-09-12T01:14:01.047Z,16.80
2018-09-12T01:16:30.256Z,16.75
2018-09-12T01:18:59.464Z,16.61
2018-09-12T01:21:28.626Z,16.60
2018-09-12T01:23:57.994Z,16.51
2018-09-12T01:26:27.163Z,16.58
2018-09-12T01:28:56.263Z,16.78
2018-09-12T01:31:25.416Z,16.80
2018-09-12T01:33:54.518Z,16.65
2018-09-12T01:36:23.718Z,16.48
2018-09-12T01:38:52.954Z,16.53
2018-09-12T01:41:22.234Z,16.42
2018-09-12T01:43:51.350Z,16.33
2018-09-12T01:46:20.506Z,16.37
2018-09-12T01:48:49.621Z,16.36
2018-09-12T01:51:18.713Z,16.44
2018-09-12T01:53:47.849Z,16.31
2018-09-12T01:56:16.997Z,16.38
2018-09-12T01:58:46.090Z,16.33
2018-09-12T02:01:15.221Z,16.39
2018-09-12T02:03:44.310Z,16.29
2018-09-12T02:06:13.501Z,16.23
2018-09-12T02:08:42.715Z,16.30
2018-09-12T02:11:11.897Z,16.46
2018-09-12T02:13:41.162Z,16.37
2018-09-12T02:16:10.401Z,16.42
2018-09-12T02:18:39.733Z,16.29
2018-09-12T02:21:08.849Z,16.25
2018-09-12T02:23:38.101Z,16.28
2018-09-12T02:26:07.268Z,16.48
2018-09-12T02:28:36.468Z,16.81
2018-09-12T02:31:05.983Z,16.62
2018-09-12T02:33:35.248Z,16.72
2018-09-12T02:36:09.721Z,16.67
2018-09-12T02:38:38.826Z,16.64
2018-09-12T02:41:08.041Z,16.56
2018-09-12T02:43:37.163Z,16.45
2018-09-12T02:46:06.613Z,16.35
2018-09-12T02:48:35.761Z,16.29
2018-09-12T02:51:05.044Z,16.35
2018-09-12T02:53:34.281Z,16.26
2018-09-12T02:56:03.481Z,16.16
2018-09-12T02:58:32.701Z,16.17
2018-09-12T03:01:02.083Z,16.14
2018-09-12T03:03:31.287Z,16.06
2018-09-12T03:06:00.557Z,16.11
2018-09-12T03:08:29.653Z,16.11
2018-09-12T03:10:58.837Z,15.95
2018-09-12T03:13:27.974Z,16.01
2018-09-12T03:15:57.145Z,16.00
2018-09-12T03:18:26.262Z,16.01
2018-09-12T03:20:55.654Z,15.99
2018-09-12T03:23:24.645Z,16.19
2018-09-12T03:25:53.780Z,16.13
2018-09-12T03:28:22.886Z,16.02
2018-09-12T03:30:52.305Z,15.90
2018-09-12T03:33:21.400Z,16.01
2018-09-12T03:35:50.909Z,16.14
2018-09-12T03:38:20.007Z,16.11
2018-09-12T03:40:50.315Z,16.14
2018-09-12T03:43:19.991Z,16.11
2018-09-12T03:45:49.649Z,16.16
2018-09-12T03:48:19.365Z,16.00
2018-09-12T03:50:49.082Z,16.19
2018-09-12T03:53:18.944Z,16.28
2018-09-12T03:55:48.846Z,16.15
2018-09-12T03:58:18.516Z,16.04
2018-09-12T04:00:48.120Z,16.01
2018-09-12T04:03:17.249Z,15.96
2018-09-12T04:05:46.365Z,16.04
2018-09-12T04:08:15.543Z,15.94
2018-09-12T04:10:44.682Z,15.91
2018-09-12T04:13:13.817Z,15.81
2018-09-12T04:15:43.191Z,15.65
2018-09-12T04:18:12.291Z,15.75
2018-09-12T04:20:41.581Z,15.77
2018-09-12T04:23:10.673Z,15.58
2018-09-12T04:25:39.828Z,15.64
2018-09-12T04:28:08.960Z,15.59
2018-09-12T04:30:38.065Z,15.49
2018-09-12T04:33:07.157Z,15.38
2018-09-12T04:35:36.517Z,15.26
2018-09-12T04:38:05.697Z,15.34
2018-09-12T04:40:34.914Z,15.37
2018-09-12T04:43:04.144Z,15.32
2018-09-12T04:45:33.289Z,15.33
2018-09-12T04:48:02.404Z,15.28
2018-09-12T04:50:31.568Z,15.28
2018-09-12T04:53:00.789Z,15.30
2018-09-12T04:55:29.973Z,15.42
2018-09-12T04:57:59.108Z,15.50
2018-09-12T05:00:28.232Z,15.52
2018-09-12T05:02:57.324Z,15.56
2018-09-12T05:05:26.464Z,15.47
2018-09-12T05:07:55.612Z,15.59
2018-09-12T05:10:27.268Z,15.51
2018-09-12T05:12:56.426Z,15.52
2018-09-12T05:15:25.541Z,15.51
2018-09-12T05:17:54.740Z,15.35
2018-09-12T05:20:23.899Z,15.32
2018-09-12T05:22:52.996Z,15.30
2018-09-12T05:25:22.246Z,15.32
2018-09-12T05:27:51.383Z,15.43
2018-09-12T05:30:20.678Z,15.48
2018-09-12T05:32:49.874Z,15.40
2018-09-12T05:35:19.120Z,15.40
2018-09-12T05:37:48.299Z,15.49
2018-09-12T05:40:18.535Z,15.53
2018-09-12T05:42:47.665Z,15.57
2018-09-12T05:45:16.903Z,15.60
2018-09-12T05:47:46.042Z,15.68
2018-09-12T05:50:15.176Z,15.80
2018-09-12T05:52:44.378Z,15.89
2018-09-12T05:55:13.574Z,15.94
2018-09-12T05:57:42.797Z,16.00
2018-09-12T06:00:12.067Z,16.05
2018-09-12T06:02:41.214Z,16.16
2018-09-12T06:05:10.333Z,16.24
2018-09-12T06:07:39.598Z,16.32
2018-09-12T06:10:08.785Z,16.66
2018-09-12T06:12:38.017Z,16.88
2018-09-12T06:15:07.137Z,17.12
2018-09-12T06:17:36.281Z,17.25
2018-09-12T06:20:05.617Z,17.38
2018-09-12T06:22:34.736Z,17.52
2018-09-12T06:25:03.993Z,17.66
2018-09-12T06:27:33.961Z,17.76
2018-09-12T06:30:03.262Z,17.93
2018-09-12T06:32:32.377Z,18.07
2018-09-12T06:35:01.553Z,18.13
2018-09-12T06:37:30.733Z,18.19
2018-09-12T06:39:59.814Z,18.34
2018-09-12T06:42:28.982Z,18.42
2018-09-12T06:44:58.080Z,18.42
2018-09-12T06:47:27.200Z,18.54
2018-09-12T06:49:56.345Z,18.51
2018-09-12T06:52:25.528Z,18.55
2018-09-12T06:54:54.630Z,18.76
2018-09-12T06:57:23.880Z,18.90
2018-09-12T06:59:53.029Z,18.91
2018-09-12T07:02:22.146Z,18.91
2018-09-12T07:04:51.425Z,18.99
2018-09-12T07:07:20.534Z,19.15
2018-09-12T07:09:49.777Z,19.19
2018-09-12T07:12:18.899Z,19.20
2018-09-12T07:14:48.069Z,19.35
2018-09-12T07:17:17.301Z,19.55
2018-09-12T07:19:46.421Z,19.75
2018-09-12T07:22:15.601Z,19.73
2018-09-12T07:24:44.860Z,19.79
2018-09-12T07:27:13.987Z,19.74
2018-09-12T07:29:43.112Z,19.73
2018-09-12T07:32:12.249Z,19.92
2018-09-12T07:34:41.351Z,19.97
2018-09-12T07:37:10.500Z,20.15
2018-09-12T07:39:39.605Z,20.05
2018-09-12T07:42:08.803Z,20.31
2018-09-12T07:44:37.968Z,20.41
2018-09-12T07:47:07.088Z,20.54
2018-09-12T07:49:36.188Z,20.63
2018-09-12T07:52:05.389Z,20.69
2018-09-12T07:54:34.585Z,20.81
2018-09-12T07:57:03.748Z,20.98
2018-09-12T07:59:33.285Z,21.10
2018-09-12T08:02:02.437Z,21.03
2018-09-12T08:04:31.545Z,21.14
2018-09-12T08:07:00.673Z,21.19
2018-09-12T08:09:29.773Z,21.35
2018-09-12T08:11:58.869Z,21.40
2018-09-12T08:14:28.036Z,21.47
2018-09-12T08:16:57.265Z,21.62
2018-09-12T08:19:26.288Z,21.43
2018-09-12T08:21:55.375Z,21.34
2018-09-12T08:24:24.496Z,21.69
2018-09-12T08:26:53.639Z,21.78
2018-09-12T08:29:22.828Z,21.70
2018-09-12T08:31:52.068Z,21.85
2018-09-12T08:34:21.230Z,22.06
2018-09-12T08:36:50.421Z,22.26
2018-09-12T08:39:19.553Z,22.22
2018-09-12T08:41:48.632Z,22.20
2018-09-12T08:44:17.884Z,22.22
2018-09-12T08:46:47.015Z,22.04
2018-09-12T08:49:16.222Z,22.19
2018-09-12T08:51:45.376Z,22.12
2018-09-12T08:54:14.518Z,22.29
2018-09-12T08:56:43.735Z,22.53
2018-09-12T08:59:12.896Z,22.44
2018-09-12T09:01:42.263Z,22.40
2018-09-12T09:04:11.374Z,22.51
2018-09-12T09:06:40.421Z,22.42
2018-09-12T09:09:11.044Z,22.79
2018-09-12T09:11:40.169Z,22.90
2018-09-12T09:14:09.312Z,22.98
2018-09-12T09:16:38.419Z,22.78
2018-09-12T09:19:07.521Z,22.58
2018-09-12T09:21:36.613Z,22.62
2018-09-12T09:24:05.809Z,23.41
2018-09-12T09:26:34.927Z,23.18
2018-09-12T09:29:04.085Z,23.36
2018-09-12T09:31:33.253Z,23.31
2018-09-12T09:34:02.498Z,23.47
2018-09-12T09:36:31.604Z,23.52
2018-09-12T09:39:00.845Z,23.65
2018-09-12T09:41:29.981Z,23.83
2018-09-12T09:43:59.192Z,23.62
2018-09-12T09:46:28.287Z,23.76
2018-09-12T09:48:57.352Z,23.76
2018-09-12T09:51:26.460Z,23.91
2018-09-12T09:53:55.664Z,24.07
2018-09-12T09:56:24.861Z,24.03
2018-09-12T09:58:54.456Z,23.82
2018-09-12T10:01:28.981Z,23.68
2018-09-12T10:04:03.367Z,24.01
2018-09-12T10:06:37.763Z,24.19
2018-09-12T10:09:14.148Z,23.96
2018-09-12T10:11:43.389Z,24.37
2018-09-12T10:14:12.548Z,24.61
2018-09-12T10:16:41.657Z,24.29
2018-09-12T10:19:10.867Z,24.56
2018-09-12T10:21:40.042Z,24.30
2018-09-12T10:24:09.109Z,24.39
2018-09-12T10:26:38.202Z,24.31
2018-09-12T10:29:07.444Z,24.20
2018-09-12T10:31:36.641Z,24.32
2018-09-12T10:34:06.266Z,24.92
2018-09-12T10:36:35.372Z,24.84
2018-09-12T10:39:06.744Z,24.98
2018-09-12T10:41:35.872Z,24.72
2018-09-12T10:44:04.984Z,24.52
2018-09-12T10:46:34.101Z,24.52
2018-09-12T10:49:03.260Z,24.77
2018-09-12T10:51:32.450Z,24.98
2018-09-12T10:54:01.552Z,25.19
2018-09-12T10:56:30.656Z,25.62
2018-09-12T10:58:59.912Z,25.81
2018-09-12T11:01:29.238Z,25.79
2018-09-12T11:03:58.463Z,26.05
2018-09-12T11:06:27.582Z,26.11
2018-09-12T11:10:26.125Z,26.44
2018-09-12T11:12:55.293Z,26.21
2018-09-12T11:15:24.549Z,26.24
2018-09-12T11:17:53.673Z,26.31
2018-09-12T11:20:22.741Z,26.58
2018-09-12T11:22:51.940Z,26.71
2018-09-12T11:25:21.117Z,26.94
2018-09-12T11:27:50.836Z,26.87
2018-09-12T11:30:19.937Z,26.92
2018-09-12T11:32:49.073Z,27.13
2018-09-12T11:35:18.221Z,27.53
2018-09-12T11:37:47.416Z,27.75
2018-09-12T11:40:17.423Z,27.97
2018-09-12T11:42:46.470Z,28.16
2018-09-12T11:45:15.565Z,28.22
2018-09-12T11:47:44.764Z,28.45
2018-09-12T11:50:13.896Z,28.81
2018-09-12T11:52:43.008Z,28.97
2018-09-12T11:55:12.126Z,29.21
2018-09-12T11:57:41.325Z,29.84
2018-09-12T12:00:10.408Z,29.84
2018-09-12T12:02:39.670Z,31.00
2018-09-12T12:05:08.746Z,30.71
2018-09-12T12:07:37.898Z,30.65
2018-09-12T12:10:07.082Z,30.65
2018-09-12T12:12:36.185Z,31.40
2018-09-12T12:15:05.300Z,31.41
2018-09-12T12:17:34.475Z,31.81
2018-09-12T12:20:03.594Z,31.61
2018-09-12T12:22:32.697Z,32.55
2018-09-12T12:25:01.823Z,32.03
2018-09-12T12:27:31.014Z,32.43
2018-09-12T12:30:00.067Z,34.16
2018-09-12T12:32:29.164Z,33.49
2018-09-12T12:34:58.359Z,33.68
2018-09-12T12:37:27.455Z,34.02
2018-09-12T12:39:56.581Z,31.65
2018-09-12T12:42:25.815Z,32.13
2018-09-12T12:44:54.897Z,33.48
2018-09-12T12:47:24.225Z,34.01
2018-09-12T12:49:53.461Z,34.20
2018-09-12T12:52:22.673Z,34.89
2018-09-12T12:54:51.919Z,34.12
2018-09-12T12:57:21.143Z,33.67
2018-09-12T12:59:50.645Z,34.13
2018-09-12T13:02:19.881Z,34.77
2018-09-12T13:04:49.157Z,35.10
2018-09-12T13:07:18.340Z,34.64
2018-09-12T13:09:47.459Z,35.62
2018-09-12T13:12:16.610Z,35.78
2018-09-12T13:14:45.821Z,35.46
2018-09-12T13:17:14.944Z,34.98
2018-09-12T13:19:44.078Z,34.71
2018-09-12T13:22:13.214Z,35.17
2018-09-12T13:24:42.360Z,34.67
2018-09-12T13:27:11.544Z,35.07
2018-09-12T13:29:40.788Z,35.27
2018-09-12T13:32:09.926Z,35.79
2018-09-12T13:34:39.289Z,35.30
2018-09-12T13:37:09.376Z,35.63
2018-09-12T13:39:38.498Z,35.61
2018-09-12T13:42:07.632Z,35.90
2018-09-12T13:44:36.747Z,35.50
2018-09-12T13:47:05.875Z,34.32
2018-09-12T13:49:34.984Z,35.65
2018-09-12T13:52:04.069Z,35.73
2018-09-12T13:54:33.206Z,35.48
2018-09-12T13:57:02.399Z,36.13
2018-09-12T13:59:31.499Z,36.99
2018-09-12T14:02:00.709Z,37.35
2018-09-12T14:04:29.878Z,37.24
2018-09-12T14:07:00.137Z,37.23
2018-09-12T14:09:29.382Z,36.71
2018-09-12T14:11:58.509Z,36.55
2018-09-12T14:14:27.641Z,36.47
2018-09-12T14:16:56.774Z,36.94
2018-09-12T14:19:25.902Z,37.08
2018-09-12T14:21:54.931Z,36.30
2018-09-12T14:24:24.089Z,36.43
2018-09-12T14:26:53.256Z,35.92
2018-09-12T14:29:22.337Z,36.45
2018-09-12T14:31:51.493Z,36.99
2018-09-12T14:34:20.661Z,37.67
2018-09-12T14:36:49.838Z,37.64
2018-09-12T14:39:19.041Z,37.97
2018-09-12T14:41:48.152Z,37.80
2018-09-12T14:44:17.358Z,37.90
2018-09-12T14:46:46.528Z,37.98
2018-09-12T14:49:15.684Z,37.31
2018-09-12T14:51:44.841Z,36.92
2018-09-12T14:54:13.997Z,37.76
2018-09-12T14:56:43.302Z,37.70
2018-09-12T14:59:12.372Z,38.35
2018-09-12T15:01:41.613Z,37.03
2018-09-12T15:04:10.672Z,37.11
2018-09-12T15:06:39.826Z,37.57
2018-09-12T15:09:10.825Z,37.60
2018-09-12T15:11:39.924Z,35.94
2018-09-12T15:14:09.326Z,36.03
2018-09-12T15:16:38.585Z,36.70
2018-09-12T15:19:07.744Z,37.49
2018-09-12T15:21:36.878Z,37.53
2018-09-12T15:24:06.308Z,37.49
2018-09-12T15:26:35.451Z,37.45
2018-09-12T15:29:05.984Z,37.48
2018-09-12T15:31:35.093Z,37.30
2018-09-12T15:34:04.165Z,37.36
2018-09-12T15:36:33.395Z,36.85
2018-09-12T15:39:02.672Z,36.06
2018-09-12T15:41:31.956Z,36.32
2018-09-12T15:44:00.979Z,36.22
2018-09-12T15:46:30.368Z,36.11
2018-09-12T15:48:59.481Z,36.04
2018-09-12T15:51:28.657Z,36.41
2018-09-12T15:53:57.759Z,35.12
2018-09-12T15:56:26.851Z,35.63
2018-09-12T15:58:56.060Z,34.55
2018-09-12T16:01:25.228Z,35.00
2018-09-12T16:03:54.378Z,34.66
2018-09-12T16:06:23.451Z,34.29
2018-09-12T16:08:52.644Z,33.98
2018-09-12T16:11:21.828Z,33.13
2018-09-12T16:13:50.922Z,32.32
2018-09-12T16:16:20.012Z,32.02
2018-09-12T16:18:49.113Z,32.37
2018-09-12T16:21:18.660Z,32.37
2018-09-12T16:23:47.755Z,31.53
2018-09-12T16:26:16.990Z,31.39
2018-09-12T16:28:46.125Z,30.76
2018-09-12T16:31:15.296Z,30.30
2018-09-12T16:33:44.450Z,30.42
2018-09-12T16:36:13.648Z,30.30
2018-09-12T16:38:42.793Z,29.89
2018-09-12T16:41:11.972Z,29.84
2018-09-12T16:43:41.092Z,29.78
2018-09-12T16:46:10.262Z,29.27
2018-09-12T16:48:39.508Z,29.05
2018-09-12T16:51:08.659Z,28.86
2018-09-12T16:53:37.774Z,28.81
2018-09-12T16:56:06.920Z,28.75
2018-09-12T16:58:36.064Z,28.36
2018-09-12T17:01:05.318Z,28.27
2018-09-12T17:03:34.439Z,28.14
2018-09-12T17:06:03.573Z,27.76
2018-09-12T17:08:33.573Z,27.52
2018-09-12T17:11:02.852Z,27.42
2018-09-12T17:13:31.958Z,26.82
2018-09-12T17:16:01.098Z,27.08
2018-09-12T17:18:30.249Z,26.83
2018-09-12T17:20:59.495Z,26.73
2018-09-12T17:23:28.672Z,26.82
2018-09-12T17:25:57.869Z,26.46
2018-09-12T17:28:26.977Z,26.44
2018-09-12T17:30:56.137Z,26.29
2018-09-12T17:33:25.460Z,26.07
2018-09-12T17:35:54.637Z,25.89
2018-09-12T17:38:24.030Z,25.54
2018-09-12T17:40:53.191Z,25.39
2018-09-12T17:43:22.422Z,25.38
2018-09-12T17:45:51.509Z,25.31
2018-09-12T17:48:20.615Z,25.32
2018-09-12T17:50:49.745Z,25.48
2018-09-12T17:53:18.961Z,25.12
2018-09-12T17:55:48.182Z,25.13
2018-09-12T17:58:17.193Z,25.05
2018-09-12T18:00:47.589Z,25.07
2018-09-12T18:03:17.273Z,25.05
2018-09-12T18:05:46.472Z,24.72
2018-09-12T18:08:15.685Z,24.83
2018-09-12T18:10:44.990Z,24.74
2018-09-12T18:13:14.215Z,24.54
2018-09-12T18:15:43.457Z,24.44
2018-09-12T18:18:12.728Z,24.22
2018-09-12T18:20:41.935Z,24.21
2018-09-12T18:23:11.285Z,23.91
2018-09-12T18:25:40.369Z,23.73
2018-09-12T18:28:09.545Z,23.67
2018-09-12T18:30:38.820Z,23.60
2018-09-12T18:33:07.921Z,23.71
2018-09-12T18:35:37.221Z,23.77
2018-09-12T18:38:06.332Z,23.79
2018-09-12T18:40:35.444Z,23.85
2018-09-12T18:43:04.660Z,23.75
2018-09-12T18:45:33.702Z,23.33
2018-09-12T18:48:02.788Z,23.32
2018-09-12T18:50:31.914Z,23.25
2018-09-12T18:53:01.145Z,23.06
2018-09-12T18:55:30.278Z,23.11
2018-09-12T18:57:59.699Z,22.99
2018-09-12T19:00:28.998Z,23.17
2018-09-12T19:02:58.688Z,22.76
2018-09-12T19:05:28.184Z,23.00
2018-09-12T19:07:57.416Z,22.73
2018-09-12T19:10:26.624Z,22.90
2018-09-12T19:12:55.817Z,22.96
2018-09-12T19:15:25.079Z,22.99
2018-09-12T19:17:54.334Z,22.64
2018-09-12T19:20:23.447Z,22.64
2018-09-12T19:22:52.637Z,22.31
2018-09-12T19:25:21.855Z,22.25
2018-09-12T19:27:50.990Z,22.38
2018-09-12T19:30:20.101Z,22.37
2018-09-12T19:32:49.298Z,22.18
2018-09-12T19:35:18.431Z,22.12
2018-09-12T19:37:47.573Z,22.29
2018-09-12T19:40:16.677Z,21.95
2018-09-12T19:42:45.904Z,22.14
2018-09-12T19:45:15.063Z,22.11
2018-09-12T19:47:44.314Z,21.59
2018-09-12T19:50:13.661Z,21.48
2018-09-12T19:52:43.645Z,21.39
2018-09-12T19:55:12.815Z,21.57
2018-09-12T19:57:42.101Z,21.69
2018-09-12T20:00:15.861Z,21.79
2018-09-12T20:02:44.978Z,21.98
2018-09-12T20:05:14.150Z,21.68
2018-09-12T20:07:43.333Z,21.46
2018-09-12T20:10:12.482Z,21.67
2018-09-12T20:12:41.608Z,21.44
2018-09-12T20:15:10.757Z,21.51
2018-09-12T20:17:39.984Z,21.22
2018-09-12T20:20:09.109Z,21.25
2018-09-12T20:22:38.281Z,21.48
2018-09-12T20:25:07.552Z,21.65
2018-09-12T20:27:36.693Z,21.51
2018-09-12T20:30:05.922Z,21.61
2018-09-12T20:32:35.077Z,21.36
2018-09-12T20:35:04.274Z,21.36
2018-09-12T20:37:33.396Z,21.18
2018-09-12T20:40:02.540Z,21.22
2018-09-12T20:42:31.664Z,21.19
2018-09-12T20:45:00.808Z,21.11
2018-09-12T20:47:30.033Z,21.25
2018-09-12T20:49:59.357Z,21.25
2018-09-12T20:52:28.461Z,21.25
2018-09-12T20:54:57.630Z,20.93
2018-09-12T20:57:26.816Z,20.82
2018-09-12T20:59:56.236Z,20.88
2018-09-12T21:02:25.560Z,20.82
2018-09-12T21:04:54.724Z,21.18
2018-09-12T21:07:23.845Z,21.35
2018-09-12T21:09:53.032Z,21.24
2018-09-12T21:12:22.310Z,20.92
2018-09-12T21:14:51.530Z,20.75
2018-09-12T21:17:20.699Z,20.62
2018-09-12T21:19:50.002Z,20.67
2018-09-12T21:22:19.105Z,20.79
2018-09-12T21:24:48.436Z,20.78
2018-09-12T21:27:17.543Z,20.89
2018-09-12T21:29:46.741Z,20.92
2018-09-12T21:32:15.894Z,20.88
2018-09-12T21:34:45.677Z,20.94
2018-09-12T21:37:14.909Z,20.76
2018-09-12T21:39:44.062Z,20.79
2018-09-12T21:42:13.271Z,20.48
2018-09-12T21:44:42.405Z,20.35
2018-09-12T21:47:11.701Z,20.17
2018-09-12T21:49:40.953Z,20.15
2018-09-12T21:52:10.132Z,20.26
2018-09-12T21:54:39.251Z,20.19
2018-09-12T21:57:08.389Z,20.32
2018-09-12T21:59:37.482Z,20.11
2018-09-12T22:02:07.024Z,20.07
2018-09-12T22:04:36.185Z,20.29
2018-09-12T22:07:05.325Z,20.37
2018-09-12T22:09:36.877Z,20.36
2018-09-12T22:12:06.042Z,20.18
2018-09-12T22:14:35.161Z,20.27
2018-09-12T22:17:04.325Z,19.97
2018-09-12T22:19:33.449Z,20.01
2018-09-12T22:22:02.616Z,20.03
2018-09-12T22:24:32.305Z,20.00
2018-09-12T22:27:01.451Z,20.04
2018-09-12T22:29:30.574Z,20.05
2018-09-12T22:31:59.748Z,20.00
2018-09-12T22:34:28.889Z,19.79
2018-09-12T22:36:58.008Z,19.93
2018-09-12T22:39:27.210Z,19.83
2018-09-12T22:41:56.416Z,19.84
2018-09-12T22:44:25.544Z,19.96
2018-09-12T22:46:54.694Z,19.76
2018-09-12T22:49:23.904Z,19.59
2018-09-12T22:51:53.004Z,19.73
2018-09-12T22:54:22.253Z,19.71
2018-09-12T22:56:51.366Z,19.67
2018-09-12T22:59:20.599Z,19.69
2018-09-12T23:01:49.745Z,19.54
2018-09-12T23:04:18.962Z,19.51
2018-09-12T23:06:48.139Z,19.47
2018-09-12T23:09:17.285Z,19.56
2018-09-12T23:11:46.528Z,19.42
2018-09-12T23:14:15.716Z,19.64
2018-09-12T23:16:44.847Z,19.46
2018-09-12T23:19:14.179Z,19.53
2018-09-12T23:21:43.302Z,19.41
2018-09-12T23:24:12.523Z,19.29
2018-09-12T23:26:41.623Z,19.19
2018-09-12T23:29:10.763Z,19.30
2018-09-12T23:31:39.912Z,19.28
2018-09-12T23:34:09.061Z,19.21
2018-09-12T23:36:38.211Z,19.23
2018-09-12T23:39:09.727Z,19.16
2018-09-12T23:41:38.891Z,18.96
2018-09-12T23:44:08.281Z,18.82
2018-09-12T23:46:37.630Z,18.79
2018-09-12T23:49:07.361Z,19.00
2018-09-12T23:51:36.559Z,19.00
2018-09-12T23:54:05.946Z,18.85
2018-09-12T23:56:35.159Z,18.85
2018-09-12T23:59:04.310Z,18.99
